sensor_id;sensor_type;location;lat;lon;timestamp;pressure;altitude;pressure_sealevel;temperature;humidity
43814;BME280;29669;55.706;37.656;2022-08-21T00:00:57;100833.69;;;18.42;nan
43814;BME280;29669;55.706;37.656;2022-08-21T00:04:17;100842.13;;;18.37;nan
43814;BME280;29669;55.706;37.656;2022-08-21T00:07:38;100837.44;;;18.33;nan
43814;BME280;29669;55.706;37.656;2022-08-21T00:11:00;100831.97;;;18.34;nan
43814;BME280;29669;55.706;37.656;2022-08-21T00:14:21;100836.06;;;18.37;nan
43814;BME280;29669;55.706;37.656;2022-08-21T00:17:41;100840.50;;;18.36;nan
43814;BME280;29669;55.706;37.656;2022-08-21T00:21:03;100835.81;;;18.32;nan
43814;BME280;29669;55.706;37.656;2022-08-21T00:24:24;100833.09;;;18.25;nan
43814;BME280;29669;55.706;37.656;2022-08-21T00:27:45;100829.41;;;18.20;nan
43814;BME280;29669;55.706;37.656;2022-08-21T00:31:06;100826.97;;;18.18;nan
43814;BME280;29669;55.706;37.656;2022-08-21T00:34:28;100835.22;;;18.15;nan
43814;BME280;29669;55.706;37.656;2022-08-21T00:37:49;100828.09;;;18.09;nan
43814;BME280;29669;55.706;37.656;2022-08-21T00:41:10;100834.34;;;18.08;nan
43814;BME280;29669;55.706;37.656;2022-08-21T00:44:45;100827.19;;;18.02;nan
43814;BME280;29669;55.706;37.656;2022-08-21T00:48:07;100829.56;;;17.97;nan
43814;BME280;29669;55.706;37.656;2022-08-21T00:51:51;100819.41;;;17.94;nan
43814;BME280;29669;55.706;37.656;2022-08-21T00:55:14;100822.59;;;17.90;nan
43814;BME280;29669;55.706;37.656;2022-08-21T00:58:35;100820.91;;;17.82;nan
43814;BME280;29669;55.706;37.656;2022-08-21T01:02:01;100830.38;;;17.83;nan
43814;BME280;29669;55.706;37.656;2022-08-21T01:05:21;100828.97;;;17.80;nan
43814;BME280;29669;55.706;37.656;2022-08-21T01:08:44;100831.69;;;17.72;nan
43814;BME280;29669;55.706;37.656;2022-08-21T01:12:05;100836.84;;;17.66;nan
43814;BME280;29669;55.706;37.656;2022-08-21T01:15:30;100836.22;;;17.64;nan
43814;BME280;29669;55.706;37.656;2022-08-21T01:18:52;100831.44;;;17.67;nan
43814;BME280;29669;55.706;37.656;2022-08-21T01:22:13;100830.59;;;17.67;nan
43814;BME280;29669;55.706;37.656;2022-08-21T01:25:34;100833.59;;;17.64;nan
43814;BME280;29669;55.706;37.656;2022-08-21T01:29:03;100823.25;;;17.62;nan
43814;BME280;29669;55.706;37.656;2022-08-21T01:32:57;100818.19;;;17.61;nan
43814;BME280;29669;55.706;37.656;2022-08-21T01:36:50;100819.22;;;17.60;nan
43814;BME280;29669;55.706;37.656;2022-08-21T01:40:12;100822.56;;;17.54;nan
43814;BME280;29669;55.706;37.656;2022-08-21T01:43:33;100820.00;;;17.46;nan
43814;BME280;29669;55.706;37.656;2022-08-21T01:46:58;100830.22;;;17.41;nan
43814;BME280;29669;55.706;37.656;2022-08-21T01:50:19;100825.78;;;17.41;nan
43814;BME280;29669;55.706;37.656;2022-08-21T01:53:41;100828.06;;;17.44;nan
43814;BME280;29669;55.706;37.656;2022-08-21T01:57:02;100814.47;;;17.41;nan
43814;BME280;29669;55.706;37.656;2022-08-21T02:00:24;100824.97;;;17.41;nan
43814;BME280;29669;55.706;37.656;2022-08-21T02:03:45;100816.28;;;17.40;nan
43814;BME280;29669;55.706;37.656;2022-08-21T02:07:05;100833.38;;;17.36;nan
43814;BME280;29669;55.706;37.656;2022-08-21T02:10:30;100827.88;;;17.31;nan
43814;BME280;29669;55.706;37.656;2022-08-21T02:13:54;100828.03;;;17.30;nan
43814;BME280;29669;55.706;37.656;2022-08-21T02:17:15;100833.66;;;17.27;nan
43814;BME280;29669;55.706;37.656;2022-08-21T02:20:41;100822.88;;;17.22;nan
43814;BME280;29669;55.706;37.656;2022-08-21T02:24:03;100828.47;;;17.19;nan
43814;BME280;29669;55.706;37.656;2022-08-21T02:27:24;100840.53;;;17.28;nan
43814;BME280;29669;55.706;37.656;2022-08-21T02:30:47;100835.75;;;17.31;nan
43814;BME280;29669;55.706;37.656;2022-08-21T02:34:08;100825.88;;;17.33;nan
43814;BME280;29669;55.706;37.656;2022-08-21T02:37:29;100829.22;;;17.42;nan
43814;BME280;29669;55.706;37.656;2022-08-21T02:40:51;100827.88;;;17.46;nan
43814;BME280;29669;55.706;37.656;2022-08-21T02:44:11;100835.41;;;17.49;nan
43814;BME280;29669;55.706;37.656;2022-08-21T02:47:36;100836.41;;;17.48;nan
43814;BME280;29669;55.706;37.656;2022-08-21T02:51:03;100845.22;;;17.47;nan
43814;BME280;29669;55.706;37.656;2022-08-21T02:54:23;100837.03;;;17.50;nan
43814;BME280;29669;55.706;37.656;2022-08-21T02:57:44;100835.88;;;17.52;nan
43814;BME280;29669;55.706;37.656;2022-08-21T03:01:06;100843.81;;;17.59;nan
43814;BME280;29669;55.706;37.656;2022-08-21T03:04:27;100846.72;;;17.64;nan
43814;BME280;29669;55.706;37.656;2022-08-21T03:07:52;100844.56;;;17.67;nan
43814;BME280;29669;55.706;37.656;2022-08-21T03:11:14;100846.63;;;17.72;nan
43814;BME280;29669;55.706;37.656;2022-08-21T03:14:34;100842.25;;;17.79;nan
43814;BME280;29669;55.706;37.656;2022-08-21T03:17:57;100846.00;;;17.84;nan
43814;BME280;29669;55.706;37.656;2022-08-21T03:21:17;100844.06;;;17.93;nan
43814;BME280;29669;55.706;37.656;2022-08-21T03:24:39;100846.19;;;18.04;nan
43814;BME280;29669;55.706;37.656;2022-08-21T03:28:01;100856.88;;;18.17;nan
43814;BME280;29669;55.706;37.656;2022-08-21T03:31:21;100856.38;;;18.28;nan
43814;BME280;29669;55.706;37.656;2022-08-21T03:34:45;100857.53;;;18.40;nan
43814;BME280;29669;55.706;37.656;2022-08-21T03:38:07;100850.81;;;18.52;nan
43814;BME280;29669;55.706;37.656;2022-08-21T03:41:31;100863.50;;;18.70;nan
43814;BME280;29669;55.706;37.656;2022-08-21T03:44:53;100855.91;;;18.82;nan
43814;BME280;29669;55.706;37.656;2022-08-21T03:48:14;100862.22;;;18.87;nan
43814;BME280;29669;55.706;37.656;2022-08-21T03:51:34;100852.19;;;18.97;nan
43814;BME280;29669;55.706;37.656;2022-08-21T03:54:56;100861.78;;;19.05;nan
43814;BME280;29669;55.706;37.656;2022-08-21T03:58:19;100854.38;;;19.15;nan
43814;BME280;29669;55.706;37.656;2022-08-21T04:01:40;100852.97;;;19.19;nan
43814;BME280;29669;55.706;37.656;2022-08-21T04:05:12;100855.22;;;19.22;nan
43814;BME280;29669;55.706;37.656;2022-08-21T04:08:40;100849.38;;;19.26;nan
43814;BME280;29669;55.706;37.656;2022-08-21T04:12:02;100846.81;;;19.33;nan
43814;BME280;29669;55.706;37.656;2022-08-21T04:15:24;100847.66;;;19.40;nan
43814;BME280;29669;55.706;37.656;2022-08-21T04:18:45;100843.88;;;19.49;nan
43814;BME280;29669;55.706;37.656;2022-08-21T04:22:00;100846.97;;;19.59;nan
43814;BME280;29669;55.706;37.656;2022-08-21T04:25:22;100851.69;;;19.70;nan
43814;BME280;29669;55.706;37.656;2022-08-21T04:28:44;100848.09;;;19.84;nan
43814;BME280;29669;55.706;37.656;2022-08-21T04:32:05;100853.81;;;19.94;nan
43814;BME280;29669;55.706;37.656;2022-08-21T04:35:27;100862.56;;;20.01;nan
43814;BME280;29669;55.706;37.656;2022-08-21T04:38:48;100868.03;;;20.06;nan
43814;BME280;29669;55.706;37.656;2022-08-21T04:42:08;100859.97;;;20.08;nan
43814;BME280;29669;55.706;37.656;2022-08-21T04:45:39;100863.63;;;20.13;nan
43814;BME280;29669;55.706;37.656;2022-08-21T04:49:01;100853.69;;;20.15;nan
43814;BME280;29669;55.706;37.656;2022-08-21T04:52:22;100861.41;;;20.17;nan
43814;BME280;29669;55.706;37.656;2022-08-21T04:55:44;100860.03;;;20.21;nan
43814;BME280;29669;55.706;37.656;2022-08-21T04:59:15;100859.25;;;20.27;nan
43814;BME280;29669;55.706;37.656;2022-08-21T05:02:38;100862.50;;;20.35;nan
43814;BME280;29669;55.706;37.656;2022-08-21T05:06:05;100865.75;;;20.37;nan
43814;BME280;29669;55.706;37.656;2022-08-21T05:09:27;100859.69;;;20.43;nan
43814;BME280;29669;55.706;37.656;2022-08-21T05:12:48;100857.06;;;20.56;nan
43814;BME280;29669;55.706;37.656;2022-08-21T05:16:10;100854.00;;;20.59;nan
43814;BME280;29669;55.706;37.656;2022-08-21T05:19:43;100843.06;;;20.69;nan
43814;BME280;29669;55.706;37.656;2022-08-21T05:23:08;100855.03;;;20.78;nan
43814;BME280;29669;55.706;37.656;2022-08-21T05:26:30;100852.00;;;20.88;nan
43814;BME280;29669;55.706;37.656;2022-08-21T05:29:52;100846.13;;;20.99;nan
43814;BME280;29669;55.706;37.656;2022-08-21T05:33:13;100843.91;;;21.09;nan
43814;BME280;29669;55.706;37.656;2022-08-21T05:36:34;100842.25;;;21.21;nan
43814;BME280;29669;55.706;37.656;2022-08-21T05:39:55;100840.81;;;21.31;nan
43814;BME280;29669;55.706;37.656;2022-08-21T05:43:28;100843.44;;;21.38;nan
43814;BME280;29669;55.706;37.656;2022-08-21T05:46:50;100834.09;;;21.42;nan
43814;BME280;29669;55.706;37.656;2022-08-21T05:50:11;100842.59;;;21.50;nan
43814;BME280;29669;55.706;37.656;2022-08-21T05:53:35;100842.59;;;21.57;nan
43814;BME280;29669;55.706;37.656;2022-08-21T05:56:57;100834.44;;;21.59;nan
43814;BME280;29669;55.706;37.656;2022-08-21T06:00:18;100833.63;;;21.65;nan
43814;BME280;29669;55.706;37.656;2022-08-21T06:03:40;100835.59;;;21.76;nan
43814;BME280;29669;55.706;37.656;2022-08-21T06:07:03;100834.75;;;21.88;nan
43814;BME280;29669;55.706;37.656;2022-08-21T06:10:17;100835.56;;;21.95;nan
43814;BME280;29669;55.706;37.656;2022-08-21T06:13:38;100826.97;;;22.00;nan
43814;BME280;29669;55.706;37.656;2022-08-21T06:17:06;100824.91;;;22.08;nan
43814;BME280;29669;55.706;37.656;2022-08-21T06:20:27;100820.41;;;22.15;nan
43814;BME280;29669;55.706;37.656;2022-08-21T06:23:48;100823.19;;;22.20;nan
43814;BME280;29669;55.706;37.656;2022-08-21T06:27:09;100820.16;;;22.23;nan
43814;BME280;29669;55.706;37.656;2022-08-21T06:30:34;100818.88;;;22.32;nan
43814;BME280;29669;55.706;37.656;2022-08-21T06:33:55;100821.25;;;22.40;nan
43814;BME280;29669;55.706;37.656;2022-08-21T06:37:16;100822.03;;;22.48;nan
43814;BME280;29669;55.706;37.656;2022-08-21T06:40:37;100821.50;;;22.64;nan
43814;BME280;29669;55.706;37.656;2022-08-21T06:43:59;100817.16;;;22.76;nan
43814;BME280;29669;55.706;37.656;2022-08-21T06:47:20;100809.69;;;22.91;nan
43814;BME280;29669;55.706;37.656;2022-08-21T06:50:41;100813.38;;;23.08;nan
43814;BME280;29669;55.706;37.656;2022-08-21T06:54:02;100811.84;;;23.18;nan
43814;BME280;29669;55.706;37.656;2022-08-21T06:57:23;100817.09;;;23.25;nan
43814;BME280;29669;55.706;37.656;2022-08-21T07:00:46;100816.38;;;23.36;nan
43814;BME280;29669;55.706;37.656;2022-08-21T07:04:08;100808.28;;;23.49;nan
43814;BME280;29669;55.706;37.656;2022-08-21T07:07:29;100814.25;;;23.63;nan
43814;BME280;29669;55.706;37.656;2022-08-21T07:10:51;100809.22;;;23.73;nan
43814;BME280;29669;55.706;37.656;2022-08-21T07:14:14;100804.19;;;23.83;nan
43814;BME280;29669;55.706;37.656;2022-08-21T07:17:35;100801.59;;;23.94;nan
43814;BME280;29669;55.706;37.656;2022-08-21T07:20:56;100797.06;;;24.01;nan
43814;BME280;29669;55.706;37.656;2022-08-21T07:24:17;100797.75;;;24.08;nan
43814;BME280;29669;55.706;37.656;2022-08-21T07:27:38;100793.97;;;24.16;nan
43814;BME280;29669;55.706;37.656;2022-08-21T07:30:59;100792.72;;;24.18;nan
43814;BME280;29669;55.706;37.656;2022-08-21T07:34:21;100798.28;;;24.28;nan
43814;BME280;29669;55.706;37.656;2022-08-21T07:37:42;100799.78;;;24.36;nan
43814;BME280;29669;55.706;37.656;2022-08-21T07:41:08;100805.44;;;24.40;nan
43814;BME280;29669;55.706;37.656;2022-08-21T07:44:31;100791.03;;;24.47;nan
43814;BME280;29669;55.706;37.656;2022-08-21T07:47:52;100789.22;;;24.59;nan
43814;BME280;29669;55.706;37.656;2022-08-21T07:51:15;100789.84;;;24.73;nan
43814;BME280;29669;55.706;37.656;2022-08-21T07:54:36;100792.16;;;24.81;nan
43814;BME280;29669;55.706;37.656;2022-08-21T07:57:57;100791.69;;;24.95;nan
43814;BME280;29669;55.706;37.656;2022-08-21T08:01:18;100789.03;;;25.07;nan
43814;BME280;29669;55.706;37.656;2022-08-21T08:04:40;100787.31;;;25.01;nan
43814;BME280;29669;55.706;37.656;2022-08-21T08:08:01;100775.63;;;25.02;nan
43814;BME280;29669;55.706;37.656;2022-08-21T08:11:22;100775.47;;;25.32;nan
43814;BME280;29669;55.706;37.656;2022-08-21T08:14:43;100766.28;;;25.62;nan
43814;BME280;29669;55.706;37.656;2022-08-21T08:18:04;100758.88;;;25.92;nan
43814;BME280;29669;55.706;37.656;2022-08-21T08:21:25;100757.16;;;26.15;nan
43814;BME280;29669;55.706;37.656;2022-08-21T08:24:47;100751.91;;;26.20;nan
43814;BME280;29669;55.706;37.656;2022-08-21T08:28:11;100751.84;;;26.15;nan
43814;BME280;29669;55.706;37.656;2022-08-21T08:31:25;100738.28;;;26.16;nan
43814;BME280;29669;55.706;37.656;2022-08-21T08:34:46;100747.16;;;26.22;nan
43814;BME280;29669;55.706;37.656;2022-08-21T08:38:07;100738.28;;;26.33;nan
43814;BME280;29669;55.706;37.656;2022-08-21T08:41:32;100741.19;;;26.48;nan
43814;BME280;29669;55.706;37.656;2022-08-21T08:45:07;100733.28;;;26.53;nan
43814;BME280;29669;55.706;37.656;2022-08-21T08:48:50;100732.06;;;26.60;nan
43814;BME280;29669;55.706;37.656;2022-08-21T08:52:27;100726.75;;;26.77;nan
43814;BME280;29669;55.706;37.656;2022-08-21T08:55:48;100728.44;;;26.83;nan
43814;BME280;29669;55.706;37.656;2022-08-21T08:59:18;100728.69;;;27.03;nan
43814;BME280;29669;55.706;37.656;2022-08-21T09:02:42;100737.94;;;27.17;nan
43814;BME280;29669;55.706;37.656;2022-08-21T09:06:22;100742.00;;;27.41;nan
43814;BME280;29669;55.706;37.656;2022-08-21T09:13:21;100743.31;;;27.65;nan
43814;BME280;29669;55.706;37.656;2022-08-21T09:21:16;100729.00;;;28.30;nan
43814;BME280;29669;55.706;37.656;2022-08-21T09:25:07;100733.16;;;28.52;nan
43814;BME280;29669;55.706;37.656;2022-08-21T09:28:34;100731.03;;;28.86;nan
43814;BME280;29669;55.706;37.656;2022-08-21T09:31:55;100735.53;;;29.32;nan
43814;BME280;29669;55.706;37.656;2022-08-21T09:35:21;100719.09;;;29.81;nan
43814;BME280;29669;55.706;37.656;2022-08-21T09:38:52;100729.81;;;30.41;nan
43814;BME280;29669;55.706;37.656;2022-08-21T09:42:23;100723.88;;;30.84;nan
43814;BME280;29669;55.706;37.656;2022-08-21T09:45:49;100725.47;;;30.85;nan
43814;BME280;29669;55.706;37.656;2022-08-21T09:49:33;100723.59;;;30.86;nan
43814;BME280;29669;55.706;37.656;2022-08-21T09:52:58;100726.53;;;30.94;nan
43814;BME280;29669;55.706;37.656;2022-08-21T09:56:29;100726.75;;;31.03;nan
43814;BME280;29669;55.706;37.656;2022-08-21T10:00:28;100720.56;;;31.07;nan
43814;BME280;29669;55.706;37.656;2022-08-21T10:04:07;100718.41;;;31.09;nan
43814;BME280;29669;55.706;37.656;2022-08-21T10:07:31;100727.00;;;31.06;nan
43814;BME280;29669;55.706;37.656;2022-08-21T10:10:56;100727.34;;;30.75;nan
43814;BME280;29669;55.706;37.656;2022-08-21T10:25:57;100711.75;;;30.97;nan
43814;BME280;29669;55.706;37.656;2022-08-21T10:29:35;100712.28;;;31.04;nan
43814;BME280;29669;55.706;37.656;2022-08-21T10:36:40;100697.47;;;31.16;nan
43814;BME280;29669;55.706;37.656;2022-08-21T10:40:15;100701.00;;;31.07;nan
43814;BME280;29669;55.706;37.656;2022-08-21T10:47:15;100696.94;;;31.14;nan
43814;BME280;29669;55.706;37.656;2022-08-21T11:00:53;100684.97;;;31.45;nan
43814;BME280;29669;55.706;37.656;2022-08-21T11:04:20;100687.66;;;31.45;nan
43814;BME280;29669;55.706;37.656;2022-08-21T11:08:23;100678.38;;;31.23;nan
43814;BME280;29669;55.706;37.656;2022-08-21T11:15:31;100680.16;;;30.74;nan
43814;BME280;29669;55.706;37.656;2022-08-21T11:19:15;100681.03;;;30.49;nan
43814;BME280;29669;55.706;37.656;2022-08-21T11:22:44;100682.41;;;30.31;nan
43814;BME280;29669;55.706;37.656;2022-08-21T11:26:27;100675.97;;;30.17;nan
43814;BME280;29669;55.706;37.656;2022-08-21T11:29:54;100678.91;;;30.06;nan
43814;BME280;29669;55.706;37.656;2022-08-21T11:37:23;100686.69;;;30.12;nan
43814;BME280;29669;55.706;37.656;2022-08-21T11:48:37;100675.16;;;29.87;nan
43814;BME280;29669;55.706;37.656;2022-08-21T11:52:18;100664.94;;;29.53;nan
43814;BME280;29669;55.706;37.656;2022-08-21T11:59:17;100673.72;;;29.29;nan
43814;BME280;29669;55.706;37.656;2022-08-21T12:02:48;100664.00;;;29.03;nan
43814;BME280;29669;55.706;37.656;2022-08-21T12:06:12;100674.56;;;28.77;nan
43814;BME280;29669;55.706;37.656;2022-08-21T12:09:34;100667.78;;;28.60;nan
43814;BME280;29669;55.706;37.656;2022-08-21T12:13:06;100669.69;;;28.59;nan
43814;BME280;29669;55.706;37.656;2022-08-21T12:16:37;100668.63;;;28.65;nan
43814;BME280;29669;55.706;37.656;2022-08-21T12:20:00;100665.72;;;28.67;nan
43814;BME280;29669;55.706;37.656;2022-08-21T12:23:42;100650.25;;;28.74;nan
43814;BME280;29669;55.706;37.656;2022-08-21T12:30:44;100660.13;;;29.35;nan
43814;BME280;29669;55.706;37.656;2022-08-21T12:34:09;100666.06;;;29.73;nan
43814;BME280;29669;55.706;37.656;2022-08-21T12:37:38;100662.88;;;30.11;nan
43814;BME280;29669;55.706;37.656;2022-08-21T12:41:11;100664.19;;;30.38;nan
43814;BME280;29669;55.706;37.656;2022-08-21T12:44:43;100669.22;;;30.55;nan
43814;BME280;29669;55.706;37.656;2022-08-21T12:52:05;100655.00;;;30.70;nan
43814;BME280;29669;55.706;37.656;2022-08-21T12:55:32;100656.31;;;30.82;nan
43814;BME280;29669;55.706;37.656;2022-08-21T12:59:01;100651.47;;;30.74;nan
43814;BME280;29669;55.706;37.656;2022-08-21T13:02:34;100655.78;;;30.75;nan
43814;BME280;29669;55.706;37.656;2022-08-21T13:05:57;100643.69;;;30.78;nan
43814;BME280;29669;55.706;37.656;2022-08-21T13:09:30;100646.66;;;30.76;nan
43814;BME280;29669;55.706;37.656;2022-08-21T13:12:54;100648.50;;;30.76;nan
43814;BME280;29669;55.706;37.656;2022-08-21T13:16:24;100649.34;;;30.71;nan
43814;BME280;29669;55.706;37.656;2022-08-21T13:19:56;100647.00;;;30.49;nan
43814;BME280;29669;55.706;37.656;2022-08-21T13:26:41;100645.19;;;29.95;nan
43814;BME280;29669;55.706;37.656;2022-08-21T13:30:17;100640.66;;;29.90;nan
43814;BME280;29669;55.706;37.656;2022-08-21T13:33:40;100632.88;;;30.04;nan
43814;BME280;29669;55.706;37.656;2022-08-21T13:37:07;100632.31;;;30.17;nan
43814;BME280;29669;55.706;37.656;2022-08-21T13:40:40;100629.63;;;30.22;nan
43814;BME280;29669;55.706;37.656;2022-08-21T13:44:18;100636.06;;;30.26;nan
43814;BME280;29669;55.706;37.656;2022-08-21T13:47:41;100633.38;;;30.36;nan
43814;BME280;29669;55.706;37.656;2022-08-21T13:51:03;100636.03;;;30.36;nan
43814;BME280;29669;55.706;37.656;2022-08-21T13:54:36;100632.34;;;30.32;nan
43814;BME280;29669;55.706;37.656;2022-08-21T13:57:59;100629.63;;;30.37;nan
43814;BME280;29669;55.706;37.656;2022-08-21T14:01:36;100613.00;;;30.25;nan
43814;BME280;29669;55.706;37.656;2022-08-21T14:05:00;100614.69;;;29.96;nan
43814;BME280;29669;55.706;37.656;2022-08-21T14:08:36;100611.44;;;29.68;nan
43814;BME280;29669;55.706;37.656;2022-08-21T14:12:02;100614.13;;;29.48;nan
43814;BME280;29669;55.706;37.656;2022-08-21T14:15:31;100618.66;;;29.38;nan
43814;BME280;29669;55.706;37.656;2022-08-21T14:22:47;100612.47;;;29.17;nan
43814;BME280;29669;55.706;37.656;2022-08-21T14:26:08;100611.34;;;29.03;nan
43814;BME280;29669;55.706;37.656;2022-08-21T14:29:36;100608.66;;;29.08;nan
43814;BME280;29669;55.706;37.656;2022-08-21T14:32:58;100607.88;;;29.13;nan
43814;BME280;29669;55.706;37.656;2022-08-21T14:36:20;100607.03;;;29.07;nan
43814;BME280;29669;55.706;37.656;2022-08-21T14:39:41;100620.19;;;29.09;nan
43814;BME280;29669;55.706;37.656;2022-08-21T14:43:03;100615.94;;;29.23;nan
43814;BME280;29669;55.706;37.656;2022-08-21T14:46:27;100610.38;;;29.49;nan
43814;BME280;29669;55.706;37.656;2022-08-21T14:50:03;100616.78;;;29.58;nan
43814;BME280;29669;55.706;37.656;2022-08-21T14:53:24;100614.66;;;29.55;nan
43814;BME280;29669;55.706;37.656;2022-08-21T14:56:45;100617.59;;;29.44;nan
43814;BME280;29669;55.706;37.656;2022-08-21T15:00:06;100621.31;;;29.33;nan
43814;BME280;29669;55.706;37.656;2022-08-21T15:03:28;100616.94;;;29.02;nan
43814;BME280;29669;55.706;37.656;2022-08-21T15:06:49;100615.50;;;28.69;nan
43814;BME280;29669;55.706;37.656;2022-08-21T15:10:11;100612.94;;;28.47;nan
43814;BME280;29669;55.706;37.656;2022-08-21T15:13:32;100612.59;;;28.29;nan
43814;BME280;29669;55.706;37.656;2022-08-21T15:16:53;100621.78;;;28.06;nan
43814;BME280;29669;55.706;37.656;2022-08-21T15:20:14;100613.19;;;27.99;nan
43814;BME280;29669;55.706;37.656;2022-08-21T15:23:35;100614.78;;;28.00;nan
43814;BME280;29669;55.706;37.656;2022-08-21T15:26:59;100613.06;;;28.21;nan
43814;BME280;29669;55.706;37.656;2022-08-21T15:30:22;100611.97;;;28.58;nan
43814;BME280;29669;55.706;37.656;2022-08-21T15:33:43;100604.75;;;28.64;nan
43814;BME280;29669;55.706;37.656;2022-08-21T15:37:05;100611.56;;;28.40;nan
43814;BME280;29669;55.706;37.656;2022-08-21T15:40:26;100608.97;;;28.08;nan
43814;BME280;29669;55.706;37.656;2022-08-21T15:43:54;100605.81;;;27.79;nan
43814;BME280;29669;55.706;37.656;2022-08-21T15:47:25;100605.28;;;27.51;nan
43814;BME280;29669;55.706;37.656;2022-08-21T15:50:48;100612.22;;;27.25;nan
43814;BME280;29669;55.706;37.656;2022-08-21T15:54:02;100609.41;;;27.10;nan
43814;BME280;29669;55.706;37.656;2022-08-21T15:57:24;100605.50;;;26.96;nan
43814;BME280;29669;55.706;37.656;2022-08-21T16:00:46;100604.25;;;26.82;nan
43814;BME280;29669;55.706;37.656;2022-08-21T16:04:07;100610.44;;;26.66;nan
43814;BME280;29669;55.706;37.656;2022-08-21T16:07:28;100610.72;;;26.48;nan
43814;BME280;29669;55.706;37.656;2022-08-21T16:11:32;100607.28;;;26.31;nan
43814;BME280;29669;55.706;37.656;2022-08-21T16:14:54;100606.53;;;26.14;nan
43814;BME280;29669;55.706;37.656;2022-08-21T16:18:48;100602.97;;;25.91;nan
43814;BME280;29669;55.706;37.656;2022-08-21T16:22:10;100599.88;;;25.66;nan
43814;BME280;29669;55.706;37.656;2022-08-21T16:25:35;100587.78;;;25.42;nan
43814;BME280;29669;55.706;37.656;2022-08-21T16:28:58;100595.94;;;25.24;nan
43814;BME280;29669;55.706;37.656;2022-08-21T16:32:20;100600.97;;;25.09;nan
43814;BME280;29669;55.706;37.656;2022-08-21T16:35:41;100601.59;;;24.99;nan
43814;BME280;29669;55.706;37.656;2022-08-21T16:39:02;100603.91;;;24.96;nan
43814;BME280;29669;55.706;37.656;2022-08-21T16:42:24;100593.75;;;24.93;nan
43814;BME280;29669;55.706;37.656;2022-08-21T16:45:45;100597.47;;;24.92;nan
43814;BME280;29669;55.706;37.656;2022-08-21T16:49:06;100588.69;;;24.91;nan
43814;BME280;29669;55.706;37.656;2022-08-21T16:52:28;100599.06;;;24.93;nan
43814;BME280;29669;55.706;37.656;2022-08-21T16:55:50;100600.34;;;24.90;nan
43814;BME280;29669;55.706;37.656;2022-08-21T16:59:11;100599.31;;;24.91;nan
43814;BME280;29669;55.706;37.656;2022-08-21T17:02:35;100606.00;;;24.94;nan
43814;BME280;29669;55.706;37.656;2022-08-21T17:05:57;100603.00;;;24.90;nan
43814;BME280;29669;55.706;37.656;2022-08-21T17:09:26;100597.25;;;24.82;nan
43814;BME280;29669;55.706;37.656;2022-08-21T17:12:52;100604.78;;;24.73;nan
43814;BME280;29669;55.706;37.656;2022-08-21T17:16:16;100608.22;;;24.62;nan
43814;BME280;29669;55.706;37.656;2022-08-21T17:19:37;100603.97;;;24.50;nan
43814;BME280;29669;55.706;37.656;2022-08-21T17:22:58;100602.50;;;24.42;nan
43814;BME280;29669;55.706;37.656;2022-08-21T17:26:19;100600.91;;;24.41;nan
43814;BME280;29669;55.706;37.656;2022-08-21T17:29:40;100601.22;;;24.45;nan
43814;BME280;29669;55.706;37.656;2022-08-21T17:33:02;100602.25;;;24.44;nan
43814;BME280;29669;55.706;37.656;2022-08-21T17:36:25;100594.78;;;24.41;nan
43814;BME280;29669;55.706;37.656;2022-08-21T17:39:46;100590.72;;;24.38;nan
43814;BME280;29669;55.706;37.656;2022-08-21T17:43:08;100595.22;;;24.38;nan
43814;BME280;29669;55.706;37.656;2022-08-21T17:46:29;100599.59;;;24.32;nan
43814;BME280;29669;55.706;37.656;2022-08-21T17:49:51;100594.88;;;24.22;nan
43814;BME280;29669;55.706;37.656;2022-08-21T17:53:12;100593.63;;;24.13;nan
43814;BME280;29669;55.706;37.656;2022-08-21T17:56:36;100603.06;;;24.09;nan
43814;BME280;29669;55.706;37.656;2022-08-21T17:59:57;100605.97;;;24.08;nan
43814;BME280;29669;55.706;37.656;2022-08-21T18:03:20;100606.69;;;24.03;nan
43814;BME280;29669;55.706;37.656;2022-08-21T18:06:44;100611.41;;;24.01;nan
43814;BME280;29669;55.706;37.656;2022-08-21T18:10:08;100607.41;;;23.92;nan
43814;BME280;29669;55.706;37.656;2022-08-21T18:13:34;100607.31;;;23.87;nan
43814;BME280;29669;55.706;37.656;2022-08-21T18:16:55;100607.31;;;23.87;nan
43814;BME280;29669;55.706;37.656;2022-08-21T18:20:19;100602.59;;;23.89;nan
43814;BME280;29669;55.706;37.656;2022-08-21T18:23:40;100603.16;;;23.91;nan
43814;BME280;29669;55.706;37.656;2022-08-21T18:27:03;100602.09;;;23.92;nan
43814;BME280;29669;55.706;37.656;2022-08-21T18:33:47;100600.97;;;23.88;nan
43814;BME280;29669;55.706;37.656;2022-08-21T18:37:08;100604.88;;;23.86;nan
43814;BME280;29669;55.706;37.656;2022-08-21T18:40:31;100604.19;;;23.79;nan
43814;BME280;29669;55.706;37.656;2022-08-21T18:43:54;100612.25;;;23.72;nan
43814;BME280;29669;55.706;37.656;2022-08-21T18:47:31;100601.50;;;23.56;nan
43814;BME280;29669;55.706;37.656;2022-08-21T18:50:54;100610.53;;;23.37;nan
43814;BME280;29669;55.706;37.656;2022-08-21T18:54:15;100614.59;;;23.21;nan
43814;BME280;29669;55.706;37.656;2022-08-21T18:57:36;100612.63;;;23.16;nan
43814;BME280;29669;55.706;37.656;2022-08-21T19:00:59;100616.53;;;23.14;nan
43814;BME280;29669;55.706;37.656;2022-08-21T19:04:20;100617.91;;;23.16;nan
43814;BME280;29669;55.706;37.656;2022-08-21T19:07:51;100608.94;;;23.17;nan
43814;BME280;29669;55.706;37.656;2022-08-21T19:11:12;100613.75;;;23.20;nan
43814;BME280;29669;55.706;37.656;2022-08-21T19:14:33;100610.63;;;23.30;nan
43814;BME280;29669;55.706;37.656;2022-08-21T19:17:56;100616.06;;;23.35;nan